sensor_id;sensor_type;location;lat;lon;timestamp;pressure;altitude;pressure_sealevel;temperature;humidity
27220;BME280;45274;52.266;10.790;2024-01-25T00:01:21;100848.56;;;7.34;96.58
27220;BME280;45274;52.266;10.790;2024-01-25T00:03:46;100839.53;;;7.28;96.93
27220;BME280;45274;52.266;10.790;2024-01-25T00:06:11;100842.91;;;7.29;96.85
27220;BME280;45274;52.266;10.790;2024-01-25T00:08:37;100844.13;;;7.23;96.58
27220;BME280;45274;52.266;10.790;2024-01-25T00:11:03;100850.56;;;7.29;97.05
27220;BME280;45274;52.266;10.790;2024-01-25T00:13:28;100843.94;;;7.26;96.84
27220;BME280;45274;52.266;10.790;2024-01-25T00:15:54;100839.66;;;7.27;96.83
27220;BME280;45274;52.266;10.790;2024-01-25T00:18:19;100849.84;;;7.27;97.31
27220;BME280;45274;52.266;10.790;2024-01-25T00:20:45;100830.53;;;7.23;97.80
27220;BME280;45274;52.266;10.790;2024-01-25T00:23:11;100839.47;;;7.30;97.14
27220;BME280;45274;52.266;10.790;2024-01-25T00:25:36;100839.53;;;7.28;97.19
27220;BME280;45274;52.266;10.790;2024-01-25T00:28:02;100832.63;;;7.30;96.89
27220;BME280;45274;52.266;10.790;2024-01-25T00:30:27;100841.09;;;7.31;96.14
27220;BME280;45274;52.266;10.790;2024-01-25T00:32:53;100829.09;;;7.33;95.54
27220;BME280;45274;52.266;10.790;2024-01-25T00:35:18;100840.25;;;7.30;96.11
27220;BME280;45274;52.266;10.790;2024-01-25T00:37:44;100848.56;;;7.34;95.25
27220;BME280;45274;52.266;10.790;2024-01-25T00:40:10;100835.28;;;7.29;96.03
27220;BME280;45274;52.266;10.790;2024-01-25T00:42:42;100850.66;;;7.27;96.87
27220;BME280;45274;52.266;10.790;2024-01-25T00:45:08;100842.75;;;7.32;95.86
27220;BME280;45274;52.266;10.790;2024-01-25T00:47:34;100837.53;;;7.33;95.83
27220;BME280;45274;52.266;10.790;2024-01-25T00:49:59;100845.00;;;7.36;95.41
27220;BME280;45274;52.266;10.790;2024-01-25T00:52:25;100847.84;;;7.32;96.29
27220;BME280;45274;52.266;10.790;2024-01-25T00:54:51;100858.13;;;7.30;96.05
27220;BME280;45274;52.266;10.790;2024-01-25T00:57:17;100854.66;;;7.31;96.59
27220;BME280;45274;52.266;10.790;2024-01-25T00:59:43;100857.69;;;7.24;97.42
27220;BME280;45274;52.266;10.790;2024-01-25T01:02:11;100860.06;;;7.27;97.35
27220;BME280;45274;52.266;10.790;2024-01-25T01:04:37;100863.56;;;7.24;98.46
27220;BME280;45274;52.266;10.790;2024-01-25T01:07:03;100868.88;;;7.21;98.77
27220;BME280;45274;52.266;10.790;2024-01-25T01:09:29;100867.88;;;7.24;97.88
27220;BME280;45274;52.266;10.790;2024-01-25T01:11:54;100860.25;;;7.24;98.33
27220;BME280;45274;52.266;10.790;2024-01-25T01:14:20;100861.78;;;7.26;97.91
27220;BME280;45274;52.266;10.790;2024-01-25T01:16:45;100861.13;;;7.23;98.20
27220;BME280;45274;52.266;10.790;2024-01-25T01:19:11;100860.13;;;7.25;98.49
27220;BME280;45274;52.266;10.790;2024-01-25T01:21:36;100851.75;;;7.23;98.10
27220;BME280;45274;52.266;10.790;2024-01-25T01:24:02;100856.22;;;7.20;98.42
27220;BME280;45274;52.266;10.790;2024-01-25T01:26:27;100845.00;;;7.22;97.39
27220;BME280;45274;52.266;10.790;2024-01-25T01:28:53;100842.47;;;7.22;97.56
27220;BME280;45274;52.266;10.790;2024-01-25T01:31:18;100844.28;;;7.20;98.84
27220;BME280;45274;52.266;10.790;2024-01-25T01:33:43;100838.47;;;7.18;99.14
27220;BME280;45274;52.266;10.790;2024-01-25T01:36:09;100852.13;;;7.17;98.67
27220;BME280;45274;52.266;10.790;2024-01-25T01:38:34;100845.19;;;7.19;98.85
27220;BME280;45274;52.266;10.790;2024-01-25T01:40:59;100836.91;;;7.16;98.98
27220;BME280;45274;52.266;10.790;2024-01-25T01:43:25;100837.72;;;7.16;98.72
27220;BME280;45274;52.266;10.790;2024-01-25T01:45:50;100827.53;;;7.16;99.59
27220;BME280;45274;52.266;10.790;2024-01-25T01:48:19;100856.75;;;7.11;99.71
27220;BME280;45274;52.266;10.790;2024-01-25T01:50:44;100842.28;;;7.11;99.12
27220;BME280;45274;52.266;10.790;2024-01-25T01:53:10;100846.56;;;7.11;99.49
27220;BME280;45274;52.266;10.790;2024-01-25T01:55:36;100852.59;;;7.10;99.44
27220;BME280;45274;52.266;10.790;2024-01-25T01:58:03;100854.41;;;7.08;100.00
27220;BME280;45274;52.266;10.790;2024-01-25T02:00:30;100862.63;;;7.13;98.96
27220;BME280;45274;52.266;10.790;2024-01-25T02:02:55;100866.78;;;7.14;98.50
27220;BME280;45274;52.266;10.790;2024-01-25T02:05:22;100856.03;;;7.09;98.83
27220;BME280;45274;52.266;10.790;2024-01-25T02:07:48;100870.34;;;7.11;99.46
27220;BME280;45274;52.266;10.790;2024-01-25T02:10:13;100865.94;;;7.13;99.37
27220;BME280;45274;52.266;10.790;2024-01-25T02:12:39;100865.16;;;7.13;99.25
27220;BME280;45274;52.266;10.790;2024-01-25T02:15:04;100855.22;;;7.08;99.23
27220;BME280;45274;52.266;10.790;2024-01-25T02:17:30;100866.78;;;7.14;98.92
27220;BME280;45274;52.266;10.790;2024-01-25T02:19:55;100871.59;;;7.04;99.74
27220;BME280;45274;52.266;10.790;2024-01-25T02:22:21;100867.97;;;7.08;99.85
27220;BME280;45274;52.266;10.790;2024-01-25T02:24:46;100855.50;;;7.04;100.00
27220;BME280;45274;52.266;10.790;2024-01-25T02:27:12;100865.69;;;7.04;100.00
27220;BME280;45274;52.266;10.790;2024-01-25T02:29:37;100863.50;;;6.98;100.00
27220;BME280;45274;52.266;10.790;2024-01-25T02:32:03;100873.97;;;6.93;100.00
27220;BME280;45274;52.266;10.790;2024-01-25T02:34:28;100862.88;;;6.94;100.00
27220;BME280;45274;52.266;10.790;2024-01-25T02:36:54;100843.50;;;6.92;100.00
27220;BME280;45274;52.266;10.790;2024-01-25T02:39:19;100839.56;;;6.86;100.00
27220;BME280;45274;52.266;10.790;2024-01-25T02:41:44;100833.72;;;6.84;100.00
27220;BME280;45274;52.266;10.790;2024-01-25T02:44:11;100846.56;;;6.82;100.00
27220;BME280;45274;52.266;10.790;2024-01-25T02:46:36;100839.22;;;6.78;100.00
27220;BME280;45274;52.266;10.790;2024-01-25T02:49:02;100852.19;;;6.73;100.00
27220;BME280;45274;52.266;10.790;2024-01-25T02:51:27;100853.56;;;6.79;100.00
27220;BME280;45274;52.266;10.790;2024-01-25T02:53:52;100846.03;;;6.77;100.00
27220;BME280;45274;52.266;10.790;2024-01-25T02:56:18;100854.75;;;6.73;100.00
27220;BME280;45274;52.266;10.790;2024-01-25T02:58:43;100867.41;;;6.75;100.00
27220;BME280;45274;52.266;10.790;2024-01-25T03:01:09;100850.53;;;6.72;100.00
27220;BME280;45274;52.266;10.790;2024-01-25T03:03:34;100866.81;;;6.70;100.00
27220;BME280;45274;52.266;10.790;2024-01-25T03:05:59;100850.66;;;6.71;100.00
27220;BME280;45274;52.266;10.790;2024-01-25T03:08:25;100857.47;;;6.70;100.00
27220;BME280;45274;52.266;10.790;2024-01-25T03:10:50;100854.84;;;6.72;100.00
27220;BME280;45274;52.266;10.790;2024-01-25T03:13:16;100856.81;;;6.67;100.00
27220;BME280;45274;52.266;10.790;2024-01-25T03:15:44;100855.91;;;6.68;100.00
27220;BME280;45274;52.266;10.790;2024-01-25T03:18:10;100852.00;;;6.62;100.00
27220;BME280;45274;52.266;10.790;2024-01-25T03:20:36;100857.19;;;6.61;100.00
27220;BME280;45274;52.266;10.790;2024-01-25T03:23:01;100867.56;;;6.58;100.00
27220;BME280;45274;52.266;10.790;2024-01-25T03:25:28;100882.56;;;6.62;100.00
27220;BME280;45274;52.266;10.790;2024-01-25T03:27:53;100895.63;;;6.56;100.00
27220;BME280;45274;52.266;10.790;2024-01-25T03:30:18;100883.00;;;6.55;100.00
27220;BME280;45274;52.266;10.790;2024-01-25T03:32:46;100880.72;;;6.50;100.00
27220;BME280;45274;52.266;10.790;2024-01-25T03:35:11;100891.88;;;6.48;100.00
27220;BME280;45274;52.266;10.790;2024-01-25T03:37:37;100897.09;;;6.46;100.00
27220;BME280;45274;52.266;10.790;2024-01-25T03:40:02;100894.59;;;6.45;100.00
27220;BME280;45274;52.266;10.790;2024-01-25T03:42:28;100899.53;;;6.48;100.00
27220;BME280;45274;52.266;10.790;2024-01-25T03:44:54;100911.44;;;6.47;100.00
27220;BME280;45274;52.266;10.790;2024-01-25T03:47:19;100915.69;;;6.47;100.00
27220;BME280;45274;52.266;10.790;2024-01-25T03:49:45;100916.53;;;6.47;100.00
27220;BME280;45274;52.266;10.790;2024-01-25T03:52:10;100923.28;;;6.48;100.00
27220;BME280;45274;52.266;10.790;2024-01-25T03:54:36;100921.63;;;6.47;100.00
27220;BME280;45274;52.266;10.790;2024-01-25T03:57:01;100928.25;;;6.50;100.00
27220;BME280;45274;52.266;10.790;2024-01-25T03:59:26;100932.63;;;6.48;100.00
27220;BME280;45274;52.266;10.790;2024-01-25T04:01:52;100930.19;;;6.46;100.00
27220;BME280;45274;52.266;10.790;2024-01-25T04:04:17;100935.00;;;6.51;100.00
27220;BME280;45274;52.266;10.790;2024-01-25T04:06:44;100944.38;;;6.50;100.00
27220;BME280;45274;52.266;10.790;2024-01-25T04:09:10;100947.91;;;6.48;100.00
27220;BME280;45274;52.266;10.790;2024-01-25T04:11:37;100958.03;;;6.49;100.00
27220;BME280;45274;52.266;10.790;2024-01-25T04:14:04;100959.91;;;6.46;100.00
27220;BME280;45274;52.266;10.790;2024-01-25T04:16:30;100969.94;;;6.49;100.00
27220;BME280;45274;52.266;10.790;2024-01-25T04:18:55;100980.84;;;6.51;100.00
27220;BME280;45274;52.266;10.790;2024-01-25T04:21:21;100982.72;;;6.47;100.00
27220;BME280;45274;52.266;10.790;2024-01-25T04:23:46;100984.28;;;6.50;100.00
27220;BME280;45274;52.266;10.790;2024-01-25T04:26:11;101006.41;;;6.49;100.00
27220;BME280;45274;52.266;10.790;2024-01-25T04:28:37;100995.28;;;6.50;100.00
27220;BME280;45274;52.266;10.790;2024-01-25T04:31:02;101011.56;;;6.48;100.00
27220;BME280;45274;52.266;10.790;2024-01-25T04:33:29;100999.72;;;6.47;100.00
27220;BME280;45274;52.266;10.790;2024-01-25T04:35:54;101001.22;;;6.51;100.00
27220;BME280;45274;52.266;10.790;2024-01-25T04:38:20;100990.31;;;6.49;100.00
27220;BME280;45274;52.266;10.790;2024-01-25T04:40:45;100996.28;;;6.48;100.00
27220;BME280;45274;52.266;10.790;2024-01-25T04:43:11;100994.63;;;6.47;100.00
27220;BME280;45274;52.266;10.790;2024-01-25T04:45:37;101004.03;;;6.46;100.00
27220;BME280;45274;52.266;10.790;2024-01-25T04:48:03;101018.63;;;6.43;100.00
27220;BME280;45274;52.266;10.790;2024-01-25T04:50:28;101011.72;;;6.45;100.00
27220;BME280;45274;52.266;10.790;2024-01-25T04:52:54;101027.44;;;6.37;100.00
27220;BME280;45274;52.266;10.790;2024-01-25T04:55:19;101030.03;;;6.36;100.00
27220;BME280;45274;52.266;10.790;2024-01-25T04:57:45;101025.78;;;6.36;100.00
27220;BME280;45274;52.266;10.790;2024-01-25T05:00:11;101024.06;;;6.37;100.00
27220;BME280;45274;52.266;10.790;2024-01-25T05:02:36;101020.84;;;6.33;100.00
27220;BME280;45274;52.266;10.790;2024-01-25T05:05:02;101032.03;;;6.31;100.00
27220;BME280;45274;52.266;10.790;2024-01-25T05:07:27;101036.53;;;6.25;100.00
27220;BME280;45274;52.266;10.790;2024-01-25T05:09:53;101017.63;;;6.29;100.00
27220;BME280;45274;52.266;10.790;2024-01-25T05:12:18;101040.72;;;6.26;100.00
27220;BME280;45274;52.266;10.790;2024-01-25T05:14:44;101044.25;;;6.24;100.00
27220;BME280;45274;52.266;10.790;2024-01-25T05:17:09;101028.16;;;6.23;100.00
27220;BME280;45274;52.266;10.790;2024-01-25T05:19:35;101030.06;;;6.20;100.00
27220;BME280;45274;52.266;10.790;2024-01-25T05:22:00;101018.88;;;6.22;100.00
27220;BME280;45274;52.266;10.790;2024-01-25T05:24:26;101014.63;;;6.23;100.00
27220;BME280;45274;52.266;10.790;2024-01-25T05:26:52;101024.19;;;6.18;100.00
27220;BME280;45274;52.266;10.790;2024-01-25T05:29:17;101019.22;;;6.16;100.00
27220;BME280;45274;52.266;10.790;2024-01-25T05:31:42;101025.94;;;6.17;100.00
27220;BME280;45274;52.266;10.790;2024-01-25T05:34:08;101021.66;;;6.18;100.00
27220;BME280;45274;52.266;10.790;2024-01-25T05:36:33;101037.19;;;6.13;100.00
27220;BME280;45274;52.266;10.790;2024-01-25T05:38:59;101034.81;;;6.10;100.00
27220;BME280;45274;52.266;10.790;2024-01-25T05:41:24;101028.06;;;6.09;100.00
27220;BME280;45274;52.266;10.790;2024-01-25T05:43:49;101043.16;;;6.12;100.00
27220;BME280;45274;52.266;10.790;2024-01-25T05:46:15;101028.16;;;6.08;100.00
27220;BME280;45274;52.266;10.790;2024-01-25T05:48:40;101035.69;;;6.09;100.00
27220;BME280;45274;52.266;10.790;2024-01-25T05:51:05;101042.59;;;6.07;100.00
27220;BME280;45274;52.266;10.790;2024-01-25T05:53:31;101055.88;;;6.12;100.00
27220;BME280;45274;52.266;10.790;2024-01-25T05:55:56;101048.66;;;6.05;100.00
27220;BME280;45274;52.266;10.790;2024-01-25T05:58:22;101056.00;;;6.11;100.00
27220;BME280;45274;52.266;10.790;2024-01-25T06:00:47;101059.69;;;6.05;100.00
27220;BME280;45274;52.266;10.790;2024-01-25T06:03:12;101053.66;;;6.06;100.00
27220;BME280;45274;52.266;10.790;2024-01-25T06:05:38;101061.28;;;6.06;100.00
27220;BME280;45274;52.266;10.790;2024-01-25T06:08:03;101063.94;;;6.05;100.00
27220;BME280;45274;52.266;10.790;2024-01-25T06:10:29;101063.19;;;6.03;100.00
27220;BME280;45274;52.266;10.790;2024-01-25T06:12:54;101069.19;;;6.02;100.00
27220;BME280;45274;52.266;10.790;2024-01-25T06:15:19;101073.28;;;6.04;100.00
27220;BME280;45274;52.266;10.790;2024-01-25T06:17:45;101076.88;;;6.00;100.00
27220;BME280;45274;52.266;10.790;2024-01-25T06:20:11;101066.88;;;5.97;100.00
27220;BME280;45274;52.266;10.790;2024-01-25T06:22:36;101062.53;;;5.99;100.00
27220;BME280;45274;52.266;10.790;2024-01-25T06:25:02;101063.72;;;5.92;100.00
27220;BME280;45274;52.266;10.790;2024-01-25T06:27:29;101070.47;;;5.93;100.00
27220;BME280;45274;52.266;10.790;2024-01-25T06:29:54;101073.75;;;5.95;100.00
27220;BME280;45274;52.266;10.790;2024-01-25T06:32:19;101083.25;;;5.92;100.00
27220;BME280;45274;52.266;10.790;2024-01-25T06:34:45;101084.03;;;5.94;100.00
27220;BME280;45274;52.266;10.790;2024-01-25T06:37:10;101087.63;;;5.90;100.00
27220;BME280;45274;52.266;10.790;2024-01-25T06:39:37;101098.38;;;5.95;100.00
27220;BME280;45274;52.266;10.790;2024-01-25T06:42:03;101095.75;;;5.96;100.00
27220;BME280;45274;52.266;10.790;2024-01-25T06:44:30;101090.75;;;5.95;100.00
27220;BME280;45274;52.266;10.790;2024-01-25T06:46:55;101090.09;;;5.91;100.00
27220;BME280;45274;52.266;10.790;2024-01-25T06:49:21;101102.56;;;5.96;100.00
27220;BME280;45274;52.266;10.790;2024-01-25T06:51:46;101110.34;;;5.93;100.00
27220;BME280;45274;52.266;10.790;2024-01-25T06:54:11;101114.91;;;5.86;100.00
27220;BME280;45274;52.266;10.790;2024-01-25T06:56:37;101125.72;;;5.91;100.00
27220;BME280;45274;52.266;10.790;2024-01-25T06:59:02;101123.31;;;5.88;100.00
27220;BME280;45274;52.266;10.790;2024-01-25T07:01:28;101136.69;;;5.92;100.00
27220;BME280;45274;52.266;10.790;2024-01-25T07:03:53;101143.53;;;5.91;100.00
27220;BME280;45274;52.266;10.790;2024-01-25T07:06:18;101148.59;;;5.91;100.00
27220;BME280;45274;52.266;10.790;2024-01-25T07:08:45;101150.09;;;5.95;100.00
27220;BME280;45274;52.266;10.790;2024-01-25T07:11:10;101150.31;;;5.91;100.00
27220;BME280;45274;52.266;10.790;2024-01-25T07:13:35;101146.13;;;5.90;100.00
27220;BME280;45274;52.266;10.790;2024-01-25T07:16:01;101153.91;;;5.87;100.00
27220;BME280;45274;52.266;10.790;2024-01-25T07:18:26;101162.13;;;5.92;100.00
27220;BME280;45274;52.266;10.790;2024-01-25T07:20:52;101164.84;;;5.89;100.00
27220;BME280;45274;52.266;10.790;2024-01-25T07:23:17;101165.66;;;5.89;100.00
27220;BME280;45274;52.266;10.790;2024-01-25T07:25:43;101167.16;;;5.93;100.00
27220;BME280;45274;52.266;10.790;2024-01-25T07:28:09;101162.91;;;5.94;100.00
27220;BME280;45274;52.266;10.790;2024-01-25T07:30:34;101170.28;;;5.98;100.00
27220;BME280;45274;52.266;10.790;2024-01-25T07:33:00;101168.03;;;5.92;100.00
27220;BME280;45274;52.266;10.790;2024-01-25T07:35:26;101179.03;;;5.93;100.00
27220;BME280;45274;52.266;10.790;2024-01-25T07:37:52;101177.47;;;5.90;100.00
27220;BME280;45274;52.266;10.790;2024-01-25T07:40:17;101165.28;;;5.97;100.00
27220;BME280;45274;52.266;10.790;2024-01-25T07:42:42;101167.97;;;5.94;100.00
27220;BME280;45274;52.266;10.790;2024-01-25T07:45:08;101178.16;;;5.94;100.00
27220;BME280;45274;52.266;10.790;2024-01-25T07:47:34;101168.66;;;5.97;100.00
27220;BME280;45274;52.266;10.790;2024-01-25T07:50:00;101191.63;;;5.96;100.00
27220;BME280;45274;52.266;10.790;2024-01-25T07:52:25;101191.03;;;5.91;100.00
27220;BME280;45274;52.266;10.790;2024-01-25T07:54:51;101197.94;;;5.89;100.00
27220;BME280;45274;52.266;10.790;2024-01-25T07:57:18;101190.19;;;5.90;100.00
27220;BME280;45274;52.266;10.790;2024-01-25T07:59:44;101201.88;;;5.94;100.00
27220;BME280;45274;52.266;10.790;2024-01-25T08:02:09;101202.78;;;5.93;100.00
27220;BME280;45274;52.266;10.790;2024-01-25T08:04:35;101200.13;;;5.95;100.00
27220;BME280;45274;52.266;10.790;2024-01-25T08:07:00;101207.56;;;5.99;100.00
27220;BME280;45274;52.266;10.790;2024-01-25T08:09:26;101203.50;;;5.95;100.00
27220;BME280;45274;52.266;10.790;2024-01-25T08:11:51;101220.28;;;5.99;100.00
27220;BME280;45274;52.266;10.790;2024-01-25T08:14:17;101205.84;;;6.00;100.00
27220;BME280;45274;52.266;10.790;2024-01-25T08:16:42;101208.25;;;6.03;100.00
27220;BME280;45274;52.266;10.790;2024-01-25T08:19:07;101209.97;;;6.02;100.00
27220;BME280;45274;52.266;10.790;2024-01-25T08:21:33;101206.28;;;6.08;100.00
27220;BME280;45274;52.266;10.790;2024-01-25T08:24:01;101208.97;;;6.05;100.00
27220;BME280;45274;52.266;10.790;2024-01-25T08:26:26;101212.56;;;6.01;100.00
27220;BME280;45274;52.266;10.790;2024-01-25T08:28:51;101209.97;;;6.02;100.00
27220;BME280;45274;52.266;10.790;2024-01-25T08:31:17;101214.97;;;6.04;100.00
27220;BME280;45274;52.266;10.790;2024-01-25T08:33:42;101228.44;;;6.06;100.00
27220;BME280;45274;52.266;10.790;2024-01-25T08:36:12;101234.19;;;6.09;100.00
27220;BME280;45274;52.266;10.790;2024-01-25T08:38:37;101230.91;;;6.07;100.00
27220;BME280;45274;52.266;10.790;2024-01-25T08:41:03;101231.94;;;6.03;100.00
27220;BME280;45274;52.266;10.790;2024-01-25T08:43:29;101233.75;;;6.01;100.00
27220;BME280;45274;52.266;10.790;2024-01-25T08:45:55;101228.34;;;6.07;100.00
27220;BME280;45274;52.266;10.790;2024-01-25T08:48:20;101241.03;;;6.09;100.00
27220;BME280;45274;52.266;10.790;2024-01-25T08:50:46;101247.00;;;6.08;100.00
27220;BME280;45274;52.266;10.790;2024-01-25T08:53:11;101246.84;;;6.11;100.00
27220;BME280;45274;52.266;10.790;2024-01-25T08:55:36;101251.13;;;6.10;100.00
27220;BME280;45274;52.266;10.790;2024-01-25T08:58:02;101252.63;;;6.14;100.00
27220;BME280;45274;52.266;10.790;2024-01-25T09:00:27;101257.09;;;6.09;100.00
27220;BME280;45274;52.266;10.790;2024-01-25T09:02:53;101268.94;;;6.10;100.00
27220;BME280;45274;52.266;10.790;2024-01-25T09:05:18;101260.16;;;6.16;100.00
27220;BME280;45274;52.266;10.790;2024-01-25T09:07:44;101264.56;;;6.12;100.00
27220;BME280;45274;52.266;10.790;2024-01-25T09:10:09;101273.13;;;6.11;100.00
27220;BME280;45274;52.266;10.790;2024-01-25T09:12:35;101278.22;;;6.11;100.00
27220;BME280;45274;52.266;10.790;2024-01-25T09:15:01;101281.41;;;6.15;100.00
27220;BME280;45274;52.266;10.790;2024-01-25T09:17:27;101290.56;;;6.19;100.00
27220;BME280;45274;52.266;10.790;2024-01-25T09:19:52;101289.59;;;6.21;100.00
27220;BME280;45274;52.266;10.790;2024-01-25T09:22:18;101290.66;;;6.17;100.00
27220;BME280;45274;52.266;10.790;2024-01-25T09:24:45;101297.31;;;6.20;100.00
27220;BME280;45274;52.266;10.790;2024-01-25T09:27:11;101299.03;;;6.19;100.00
27220;BME280;45274;52.266;10.790;2024-01-25T09:29:38;101298.72;;;6.25;100.00
27220;BME280;45274;52.266;10.790;2024-01-25T09:32:04;101304.56;;;6.27;100.00
27220;BME280;45274;52.266;10.790;2024-01-25T09:34:30;101301.97;;;6.29;100.00
27220;BME280;45274;52.266;10.790;2024-01-25T09:36:55;101311.66;;;6.38;100.00
27220;BME280;45274;52.266;10.790;2024-01-25T09:39:21;101301.25;;;6.43;100.00
27220;BME280;45274;52.266;10.790;2024-01-25T09:41:46;101311.34;;;6.44;100.00
27220;BME280;45274;52.266;10.790;2024-01-25T09:44:12;101300.88;;;6.50;100.00
27220;BME280;45274;52.266;10.790;2024-01-25T09:46:38;101313.25;;;6.58;100.00
27220;BME280;45274;52.266;10.790;2024-01-25T09:49:05;101296.59;;;6.51;100.00
27220;BME280;45274;52.266;10.790;2024-01-25T09:51:37;101312.03;;;6.48;100.00
27220;BME280;45274;52.266;10.790;2024-01-25T09:54:04;101320.13;;;6.56;100.00
27220;BME280;45274;52.266;10.790;2024-01-25T09:56:32;101316.69;;;6.57;100.00
27220;BME280;45274;52.266;10.790;2024-01-25T09:58:58;101313.97;;;6.60;100.00
27220;BME280;45274;52.266;10.790;2024-01-25T10:01:24;101319.13;;;6.58;100.00
27220;BME280;45274;52.266;10.790;2024-01-25T10:03:50;101311.50;;;6.58;100.00
27220;BME280;45274;52.266;10.790;2024-01-25T10:06:16;101297.63;;;6.64;100.00
27220;BME280;45274;52.266;10.790;2024-01-25T10:08:42;101310.16;;;6.68;100.00
27220;BME280;45274;52.266;10.790;2024-01-25T10:11:08;101321.06;;;6.70;100.00
27220;BME280;45274;52.266;10.790;2024-01-25T10:13:44;101315.38;;;6.65;100.00
27220;BME280;45274;52.266;10.790;2024-01-25T10:16:14;101319.81;;;6.62;100.00
27220;BME280;45274;52.266;10.790;2024-01-25T10:18:41;101321.47;;;6.63;100.00
27220;BME280;45274;52.266;10.790;2024-01-25T10:21:09;101325.81;;;6.61;100.00
27220;BME280;45274;52.266;10.790;2024-01-25T10:23:35;101335.19;;;6.60;100.00
27220;BME280;45274;52.266;10.790;2024-01-25T10:26:00;101340.91;;;6.64;100.00
27220;BME280;45274;52.266;10.790;2024-01-25T10:28:25;101340.78;;;6.67;100.00
27220;BME280;45274;52.266;10.790;2024-01-25T10:30:55;101344.75;;;6.72;100.00
27220;BME280;45274;52.266;10.790;2024-01-25T10:33:21;101366.47;;;6.79;100.00
27220;BME280;45274;52.266;10.790;2024-01-25T10:35:47;101356.53;;;6.75;100.00
27220;BME280;45274;52.266;10.790;2024-01-25T10:38:17;101369.91;;;6.78;100.00
27220;BME280;45274;52.266;10.790;2024-01-25T10:40:43;101366.63;;;6.76;100.00
27220;BME280;45274;52.266;10.790;2024-01-25T10:43:08;101367.88;;;6.85;100.00
27220;BME280;45274;52.266;10.790;2024-01-25T10:45:34;101364.16;;;6.75;100.00
27220;BME280;45274;52.266;10.790;2024-01-25T10:48:00;101370.75;;;6.79;100.00
27220;BME280;45274;52.266;10.790;2024-01-25T10:50:25;101372.47;;;6.78;100.00
27220;BME280;45274;52.266;10.790;2024-01-25T10:52:51;101376.66;;;6.79;100.00
27220;BME280;45274;52.266;10.790;2024-01-25T10:55:17;101391.22;;;6.77;100.00
27220;BME280;45274;52.266;10.790;2024-01-25T10:57:44;101388.66;;;6.77;100.00
27220;BME280;45274;52.266;10.790;2024-01-25T11:00:12;101383.31;;;6.82;100.00
27220;BME280;45274;52.266;10.790;2024-01-25T11:02:39;101390.50;;;6.91;100.00
27220;BME280;45274;52.266;10.790;2024-01-25T11:05:10;101383.25;;;6.83;100.00
27220;BME280;45274;52.266;10.790;2024-01-25T11:07:46;101376.13;;;6.73;100.00
27220;BME280;45274;52.266;10.790;2024-01-25T11:10:17;101378.84;;;6.70;100.00
27220;BME280;45274;52.266;10.790;2024-01-25T11:12:55;101378.91;;;6.68;100.00
27220;BME280;45274;52.266;10.790;2024-01-25T11:15:23;101377.34;;;6.66;100.00
27220;BME280;45274;52.266;10.790;2024-01-25T11:17:56;101372.47;;;6.61;100.00
27220;BME280;45274;52.266;10.790;2024-01-25T11:20:27;101370.59;;;6.65;100.00
27220;BME280;45274;52.266;10.790;2024-01-25T11:23:02;101365.59;;;6.63;100.00
27220;BME280;45274;52.266;10.790;2024-01-25T11:25:29;101361.63;;;6.75;100.00
27220;BME280;45274;52.266;10.790;2024-01-25T11:27:55;101366.16;;;6.85;100.00
27220;BME280;45274;52.266;10.790;2024-01-25T11:30:20;101358.06;;;6.95;100.00
27220;BME280;45274;52.266;10.790;2024-01-25T11:32:47;101364.13;;;6.92;100.00
27220;BME280;45274;52.266;10.790;2024-01-25T11:35:16;101369.09;;;6.95;100.00
27220;BME280;45274;52.266;10.790;2024-01-25T11:37:46;101370.22;;;6.90;100.00
27220;BME280;45274;52.266;10.790;2024-01-25T11:40:13;101369.00;;;6.97;100.00
27220;BME280;45274;52.266;10.790;2024-01-25T11:42:40;101379.03;;;7.00;100.00
27220;BME280;45274;52.266;10.790;2024-01-25T11:45:09;101369.44;;;6.88;98.69
27220;BME280;45274;52.266;10.790;2024-01-25T11:47:35;101372.16;;;6.84;99.58
27220;BME280;45274;52.266;10.790;2024-01-25T11:50:02;101379.59;;;6.89;99.78
27220;BME280;45274;52.266;10.790;2024-01-25T11:52:28;101383.13;;;6.87;100.00
27220;BME280;45274;52.266;10.790;2024-01-25T11:54:53;101381.69;;;6.81;100.00
27220;BME280;45274;52.266;10.790;2024-01-25T11:57:19;101385.31;;;6.93;100.00
27220;BME280;45274;52.266;10.790;2024-01-25T11:59:45;101386.00;;;6.96;100.00
27220;BME280;45274;52.266;10.790;2024-01-25T12:02:12;101374.66;;;7.02;100.00
27220;BME280;45274;52.266;10.790;2024-01-25T12:04:39;101388.81;;;7.07;100.00
27220;BME280;45274;52.266;10.790;2024-01-25T12:07:05;101389.47;;;6.95;100.00
27220;BME280;45274;52.266;10.790;2024-01-25T12:09:30;101386.00;;;6.96;100.00
27220;BME280;45274;52.266;10.790;2024-01-25T12:11:56;101381.31;;;6.89;100.00
27220;BME280;45274;52.266;10.790;2024-01-25T12:14:23;101382.72;;;6.94;100.00
27220;BME280;45274;52.266;10.790;2024-01-25T12:16:49;101377.31;;;7.00;100.00
27220;BME280;45274;52.266;10.790;2024-01-25T12:19:15;101370.97;;;7.07;100.00
27220;BME280;45274;52.266;10.790;2024-01-25T12:21:43;101361.25;;;7.15;100.00
27220;BME280;45274;52.266;10.790;2024-01-25T12:24:09;101359.25;;;7.20;100.00
27220;BME280;45274;52.266;10.790;2024-01-25T12:26:36;101359.00;;;7.25;100.00
27220;BME280;45274;52.266;10.790;2024-01-25T12:29:01;101360.25;;;7.33;100.00
27220;BME280;45274;52.266;10.790;2024-01-25T12:31:28;101357.66;;;7.35;100.00
27220;BME280;45274;52.266;10.790;2024-01-25T12:33:54;101358.63;;;7.48;100.00
27220;BME280;45274;52.266;10.790;2024-01-25T12:36:19;101365.03;;;7.39;99.57